Time;durP1;ratioP1;P1;durP2;ratioP2;P2;SDS_P1;SDS_P2;PMS_P1;PMS_P2;Temp;Humidity;BMP_temperature;BMP_pressure;BME280_temperature;BME280_humidity;BME280_pressure;Samples;Min_cycle;Max_cycle;Signal;HPM_P1;HPM_P2
2021/11/10 00:01:51;;;;;;;11.75;4.20;;;;;;;;;;5116911;28;20023;-71
2021/11/10 00:04:18;;;;;;;13.00;4.07;;;;;;;;;;5117367;27;20035;-70
2021/11/10 00:06:44;;;;;;;11.02;4.00;;;;;;;;;;5117093;28;20028;-72
2021/11/10 00:09:10;;;;;;;17.85;4.43;;;;;;;;;;5118561;27;20523;-71
2021/11/10 00:11:36;;;;;;;8.65;3.72;;;;;;;;;;5137683;27;20447;-71
2021/11/10 00:14:03;;;;;;;12.82;4.20;;;;;;;;;;5117898;27;20076;-73
2021/11/10 00:16:30;;;;;;;11.65;3.92;;;;;;;;;;5116870;28;20059;-68
2021/11/10 00:18:56;;;;;;;17.50;4.55;;;;;;;;;;5116525;28;20538;-71
2021/11/10 00:21:23;;;;;;;11.13;3.78;;;;;;;;;;5117157;28;20106;-69
2021/11/10 00:23:49;;;;;;;14.32;4.35;;;;;;;;;;5116820;28;20482;-69
2021/11/10 00:26:15;;;;;;;9.07;3.88;;;;;;;;;;5116254;27;20024;-66
2021/11/10 00:28:41;;;;;;;11.80;4.18;;;;;;;;;;5116559;28;20055;-66
2021/11/10 00:31:07;;;;;;;9.20;3.95;;;;;;;;;;5116351;27;20104;-70
2021/11/10 00:33:33;;;;;;;11.93;4.10;;;;;;;;;;5116472;28;20035;-70
2021/11/10 00:36:00;;;;;;;12.70;4.15;;;;;;;;;;5132129;27;20155;-70
2021/11/10 00:38:26;;;;;;;20.60;4.30;;;;;;;;;;5137089;27;20088;-70
2021/11/10 00:40:53;;;;;;;9.73;4.07;;;;;;;;;;5136409;27;20479;-71
2021/11/10 00:43:19;;;;;;;15.25;4.03;;;;;;;;;;5136789;27;20360;-65
2021/11/10 00:45:45;;;;;;;11.70;4.10;;;;;;;;;;5117354;27;20477;-63
2021/11/10 00:48:11;;;;;;;13.85;4.18;;;;;;;;;;5136668;27;20379;-63
2021/11/10 00:50:38;;;;;;;10.60;4.13;;;;;;;;;;5122344;27;20023;-70
2021/11/10 00:53:05;;;;;;;15.23;4.32;;;;;;;;;;5116332;28;20019;-64
2021/11/10 00:55:31;;;;;;;13.50;3.83;;;;;;;;;;5116199;27;20126;-69
2021/11/10 00:57:57;;;;;;;10.50;3.90;;;;;;;;;;5115945;28;20098;-65
2021/11/10 01:00:24;;;;;;;12.15;4.22;;;;;;;;;;5128202;27;20117;-70
2021/11/10 01:02:50;;;;;;;12.55;3.88;;;;;;;;;;5157555;27;20034;-71
2021/11/10 01:05:17;;;;;;;8.90;3.80;;;;;;;;;;5116927;27;20028;-70
2021/11/10 01:07:43;;;;;;;14.70;4.13;;;;;;;;;;5097667;28;20031;-69
2021/11/10 01:10:11;;;;;;;9.98;4.32;;;;;;;;;;5124098;27;20536;-66
2021/11/10 01:12:38;;;;;;;8.07;3.90;;;;;;;;;;5136356;27;20031;-64
2021/11/10 01:15:05;;;;;;;9.60;3.90;;;;;;;;;;5117292;27;20026;-66
2021/11/10 01:17:31;;;;;;;10.52;4.00;;;;;;;;;;5117889;27;20035;-67
2021/11/10 01:20:03;;;;;;;12.68;4.18;;;;;;;;;;5127547;27;20047;-72
2021/11/10 01:22:29;;;;;;;12.65;4.95;;;;;;;;;;5115615;28;20496;-67
2021/11/10 01:24:56;;;;;;;6.95;3.50;;;;;;;;;;5115013;27;20055;-63
2021/11/10 01:27:25;;;;;;;11.43;4.28;;;;;;;;;;5115435;28;20020;-70
2021/11/10 01:29:51;;;;;;;7.35;3.75;;;;;;;;;;5115300;27;20028;-63
2021/11/10 01:32:17;;;;;;;6.70;3.65;;;;;;;;;;5115401;28;20036;-71
2021/11/10 01:34:43;;;;;;;9.60;4.10;;;;;;;;;;5120996;27;20480;-70
2021/11/10 01:37:12;;;;;;;11.60;4.28;;;;;;;;;;5117977;27;20032;-71
2021/11/10 01:39:39;;;;;;;8.88;3.90;;;;;;;;;;5129611;27;20030;-71
2021/11/10 01:42:05;;;;;;;10.55;4.13;;;;;;;;;;5116350;28;20030;-70
2021/11/10 01:44:36;;;;;;;10.25;3.97;;;;;;;;;;5119396;27;20027;-69
2021/11/10 01:47:07;;;;;;;5.70;3.63;;;;;;;;;;5135819;27;20054;-69
2021/11/10 01:49:33;;;;;;;9.63;4.22;;;;;;;;;;5131131;27;20055;-68
2021/11/10 01:51:59;;;;;;;11.88;4.22;;;;;;;;;;5096557;28;20027;-67
2021/11/10 01:54:28;;;;;;;6.95;3.55;;;;;;;;;;5114256;28;20027;-69
2021/11/10 01:56:54;;;;;;;8.85;4.55;;;;;;;;;;5114766;28;20031;-67
2021/11/10 01:59:34;;;;;;;7.50;4.15;;;;;;;;;;5117001;27;20024;-64
2021/11/10 02:02:01;;;;;;;9.45;4.43;;;;;;;;;;5116860;27;20386;-66
2021/11/10 02:04:31;;;;;;;8.98;4.25;;;;;;;;;;5131109;27;20472;-68
2021/11/10 02:06:58;;;;;;;10.02;3.85;;;;;;;;;;5097087;28;20024;-68
2021/11/10 02:09:25;;;;;;;9.85;4.28;;;;;;;;;;5115549;27;20038;-66
2021/11/10 02:11:53;;;;;;;9.63;4.07;;;;;;;;;;5096801;28;20030;-68
2021/11/10 02:14:19;;;;;;;12.50;4.25;;;;;;;;;;5098984;27;20034;-67
2021/11/10 02:16:46;;;;;;;9.77;4.32;;;;;;;;;;5134918;27;20043;-69
2021/11/10 02:19:14;;;;;;;13.02;3.70;;;;;;;;;;5132788;27;20031;-69
2021/11/10 02:21:42;;;;;;;11.57;3.90;;;;;;;;;;5114638;28;20031;-69
2021/11/10 02:24:08;;;;;;;9.18;3.90;;;;;;;;;;5115347;27;20023;-70
2021/11/10 02:26:35;;;;;;;7.63;4.03;;;;;;;;;;5134947;27;20027;-66
2021/11/10 02:29:01;;;;;;;7.07;3.63;;;;;;;;;;5134042;27;20032;-69
2021/11/10 02:31:28;;;;;;;10.73;3.50;;;;;;;;;;5134970;27;20466;-70
2021/11/10 02:33:54;;;;;;;8.35;3.70;;;;;;;;;;5116922;27;20019;-67
2021/11/10 02:36:20;;;;;;;12.55;3.35;;;;;;;;;;5115279;27;20065;-69
2021/11/10 02:38:47;;;;;;;8.27;4.10;;;;;;;;;;5096545;28;20020;-64
2021/11/10 02:41:13;;;;;;;9.98;3.83;;;;;;;;;;5132434;27;20057;-68
2021/11/10 02:43:39;;;;;;;8.45;3.45;;;;;;;;;;5134587;27;20080;-67
2021/11/10 02:46:06;;;;;;;10.63;3.67;;;;;;;;;;5099493;28;20019;-63
2021/11/10 02:48:32;;;;;;;8.05;3.58;;;;;;;;;;5096216;28;20043;-63
2021/11/10 02:50:58;;;;;;;7.38;3.60;;;;;;;;;;5113431;28;20023;-65
2021/11/10 02:53:23;;;;;;;12.50;4.30;;;;;;;;;;5113936;28;20034;-66
2021/11/10 02:55:51;;;;;;;19.90;3.72;;;;;;;;;;5114856;27;20031;-66
2021/11/10 02:58:18;;;;;;;15.65;3.90;;;;;;;;;;5134418;27;20038;-66
2021/11/10 03:00:44;;;;;;;9.90;3.60;;;;;;;;;;5142870;27;20023;-66
2021/11/10 03:03:10;;;;;;;16.05;3.95;;;;;;;;;;5155068;27;20487;-69
2021/11/10 03:05:37;;;;;;;9.60;3.67;;;;;;;;;;5121602;27;20019;-72
2021/11/10 03:08:04;;;;;;;14.32;4.10;;;;;;;;;;5134934;27;20032;-72
2021/11/10 03:10:31;;;;;;;12.43;3.70;;;;;;;;;;5116208;27;20114;-71
2021/11/10 03:13:07;;;;;;;12.77;3.67;;;;;;;;;;5135994;27;20027;-68
2021/11/10 03:15:37;;;;;;;12.85;4.53;;;;;;;;;;5121505;27;20358;-71
2021/11/10 03:18:04;;;;;;;11.73;3.97;;;;;;;;;;5113494;28;20467;-72
2021/11/10 03:20:30;;;;;;;12.38;3.60;;;;;;;;;;5125329;27;20047;-68
2021/11/10 03:22:56;;;;;;;15.23;3.88;;;;;;;;;;5133565;27;20088;-64
2021/11/10 03:25:22;;;;;;;9.15;3.47;;;;;;;;;;5121954;27;20024;-68
2021/11/10 03:27:48;;;;;;;9.45;3.72;;;;;;;;;;5113314;28;20103;-68
2021/11/10 03:30:14;;;;;;;13.80;4.10;;;;;;;;;;5095027;28;20034;-67
2021/11/10 03:32:41;;;;;;;11.98;3.67;;;;;;;;;;5113405;28;20462;-69
2021/11/10 03:35:08;;;;;;;10.27;3.50;;;;;;;;;;5104528;28;20039;-73
2021/11/10 03:37:35;;;;;;;12.50;3.70;;;;;;;;;;5134253;28;20486;-69
2021/11/10 03:40:01;;;;;;;8.90;3.38;;;;;;;;;;5108105;28;20475;-69
2021/11/10 03:42:28;;;;;;;14.60;4.13;;;;;;;;;;5096244;28;20054;-64
2021/11/10 03:44:54;;;;;;;16.83;3.65;;;;;;;;;;5113215;28;20027;-66
2021/11/10 03:47:20;;;;;;;8.05;3.38;;;;;;;;;;5113233;28;20024;-66
2021/11/10 03:49:45;;;;;;;13.52;3.47;;;;;;;;;;5112503;28;20023;-69
2021/11/10 03:52:14;;;;;;;13.88;3.78;;;;;;;;;;5113151;28;20028;-66
2021/11/10 03:54:41;;;;;;;10.40;3.65;;;;;;;;;;5117874;28;20088;-68
2021/11/10 03:57:07;;;;;;;13.35;3.22;;;;;;;;;;5133564;28;20039;-67
2021/11/10 03:59:33;;;;;;;8.35;3.33;;;;;;;;;;5109966;28;20475;-69
2021/11/10 04:01:59;;;;;;;10.25;3.13;;;;;;;;;;5153599;27;20027;-69
2021/11/10 04:04:25;;;;;;;7.90;3.15;;;;;;;;;;5128345;28;20027;-65
2021/11/10 04:06:51;;;;;;;8.52;3.85;;;;;;;;;;5114238;28;20055;-69
2021/11/10 04:09:17;;;;;;;6.90;3.60;;;;;;;;;;5113736;28;20573;-70
2021/11/10 04:11:43;;;;;;;11.45;3.42;;;;;;;;;;5113432;28;20415;-71
2021/11/10 04:14:09;;;;;;;12.88;3.88;;;;;;;;;;5113095;28;20028;-70
2021/11/10 04:16:35;;;;;;;9.40;4.18;;;;;;;;;;5130551;28;20056;-65
2021/11/10 04:19:01;;;;;;;6.90;2.97;;;;;;;;;;5114743;28;20504;-68
2021/11/10 04:21:27;;;;;;;10.18;3.38;;;;;;;;;;5113092;28;20507;-67
2021/11/10 04:23:54;;;;;;;10.02;3.55;;;;;;;;;;5113214;28;20023;-65
2021/11/10 04:26:21;;;;;;;10.63;3.45;;;;;;;;;;5113011;28;20031;-70
2021/11/10 04:28:47;;;;;;;8.40;3.58;;;;;;;;;;5113098;28;20024;-70
2021/11/10 04:31:13;;;;;;;6.53;2.90;;;;;;;;;;5112958;28;20103;-70
2021/11/10 04:33:40;;;;;;;11.27;3.60;;;;;;;;;;5113433;28;20111;-70
2021/11/10 04:36:06;;;;;;;6.88;3.40;;;;;;;;;;5097770;28;20483;-68
2021/11/10 04:38:33;;;;;;;6.10;3.13;;;;;;;;;;5100128;28;20028;-68
2021/11/10 04:40:59;;;;;;;8.05;3.45;;;;;;;;;;5100162;28;20438;-71
2021/11/10 04:43:26;;;;;;;6.88;3.00;;;;;;;;;;5118142;28;20356;-69
2021/11/10 04:46:03;;;;;;;12.20;3.72;;;;;;;;;;5114038;27;20023;-69
2021/11/10 04:48:29;;;;;;;9.40;3.78;;;;;;;;;;5121026;27;20034;-65
2021/11/10 04:50:56;;;;;;;7.72;3.22;;;;;;;;;;5119689;27;20024;-69
2021/11/10 04:53:22;;;;;;;12.18;3.80;;;;;;;;;;5116413;28;20104;-69
2021/11/10 04:55:48;;;;;;;8.70;3.10;;;;;;;;;;5115833;28;20031;-64
2021/11/10 04:58:15;;;;;;;9.05;3.47;;;;;;;;;;5098046;28;20085;-69
2021/11/10 05:00:41;;;;;;;14.60;3.88;;;;;;;;;;5134056;27;20400;-67
2021/11/10 05:03:07;;;;;;;12.10;3.83;;;;;;;;;;5157758;27;20458;-68
2021/11/10 05:05:33;;;;;;;7.15;3.53;;;;;;;;;;5142567;27;20084;-68
2021/11/10 05:07:59;;;;;;;9.35;3.85;;;;;;;;;;5136779;27;20027;-70
2021/11/10 05:10:25;;;;;;;10.15;3.60;;;;;;;;;;5123937;27;20024;-70
2021/11/10 05:12:51;;;;;;;7.70;4.10;;;;;;;;;;5115969;28;20466;-70
2021/11/10 05:15:17;;;;;;;13.68;3.42;;;;;;;;;;5126241;27;20110;-67
2021/11/10 05:17:43;;;;;;;9.00;3.88;;;;;;;;;;5136701;27;20470;-66
2021/11/10 05:20:10;;;;;;;7.72;3.55;;;;;;;;;;5125925;27;20097;-65
2021/11/10 05:22:36;;;;;;;7.00;3.55;;;;;;;;;;5097255;28;20032;-68
2021/11/10 05:25:01;;;;;;;6.63;3.58;;;;;;;;;;5115083;28;20035;-68
2021/11/10 05:27:28;;;;;;;6.90;3.67;;;;;;;;;;5115738;28;20023;-68
2021/11/10 05:29:54;;;;;;;7.45;3.78;;;;;;;;;;5122274;27;20058;-68
2021/11/10 05:32:20;;;;;;;8.50;3.65;;;;;;;;;;5136780;27;20015;-70
2021/11/10 05:34:48;;;;;;;7.35;3.80;;;;;;;;;;5136577;27;20026;-69
2021/11/10 05:37:20;;;;;;;9.60;3.83;;;;;;;;;;5138625;27;20031;-67
2021/11/10 05:39:48;;;;;;;9.00;3.95;;;;;;;;;;5111470;28;20027;-65
2021/11/10 05:42:16;;;;;;;19.13;3.70;;;;;;;;;;5115834;28;20027;-70
2021/11/10 05:44:42;;;;;;;9.90;3.67;;;;;;;;;;5098306;28;20016;-69
2021/11/10 05:47:09;;;;;;;14.38;4.00;;;;;;;;;;5096581;28;20501;-68
2021/11/10 05:49:35;;;;;;;11.77;4.15;;;;;;;;;;5119497;27;20027;-64
2021/11/10 05:52:01;;;;;;;17.30;4.20;;;;;;;;;;5116977;27;20052;-68
2021/11/10 05:54:28;;;;;;;11.27;3.88;;;;;;;;;;5131211;27;20111;-67
2021/11/10 05:56:54;;;;;;;18.13;4.28;;;;;;;;;;5114600;28;20114;-66
2021/11/10 05:59:20;;;;;;;19.83;4.22;;;;;;;;;;5114775;28;20028;-63
2021/11/10 06:01:46;;;;;;;23.25;4.88;;;;;;;;;;5151762;27;20026;-67
2021/11/10 06:04:13;;;;;;;13.07;3.85;;;;;;;;;;5152270;27;20078;-66
2021/11/10 06:06:45;;;;;;;14.35;4.03;;;;;;;;;;5097722;28;20482;-65
2021/11/10 06:09:12;;;;;;;10.30;3.83;;;;;;;;;;5117074;27;20062;-68
2021/11/10 06:11:39;;;;;;;27.30;4.95;;;;;;;;;;5115834;28;20384;-70
2021/11/10 06:14:05;;;;;;;42.90;5.40;;;;;;;;;;5114779;28;20115;-67
2021/11/10 06:16:31;;;;;;;50.90;5.45;;;;;;;;;;5137346;27;20439;-65
2021/11/10 06:18:57;;;;;;;29.08;4.80;;;;;;;;;;5134594;27;20115;-68
2021/11/10 06:21:23;;;;;;;17.52;4.70;;;;;;;;;;5135079;27;20045;-66
2021/11/10 06:23:49;;;;;;;34.00;5.00;;;;;;;;;;5135532;27;20056;-72
2021/11/10 06:26:15;;;;;;;26.15;4.65;;;;;;;;;;5134196;27;20035;-72
2021/11/10 06:28:41;;;;;;;25.63;4.40;;;;;;;;;;5134979;27;20066;-64
2021/11/10 06:31:07;;;;;;;21.60;4.85;;;;;;;;;;5134012;27;20026;-68
2021/11/10 06:33:33;;;;;;;34.30;5.10;;;;;;;;;;5135078;27;20030;-71
2021/11/10 06:35:59;;;;;;;18.38;4.65;;;;;;;;;;5117683;27;20031;-68
2021/11/10 06:38:25;;;;;;;19.55;4.82;;;;;;;;;;5113906;28;20031;-66
2021/11/10 06:40:51;;;;;;;15.00;4.38;;;;;;;;;;5101899;27;20034;-68
2021/11/10 06:43:17;;;;;;;10.88;4.57;;;;;;;;;;5113960;28;20024;-67
2021/11/10 06:45:43;;;;;;;13.77;4.78;;;;;;;;;;5106680;28;20024;-67
2021/11/10 06:48:09;;;;;;;15.35;4.75;;;;;;;;;;5113869;28;20098;-67
2021/11/10 06:50:35;;;;;;;12.25;4.20;;;;;;;;;;5126324;27;20075;-68
2021/11/10 06:53:01;;;;;;;13.98;4.65;;;;;;;;;;5134285;27;20042;-67
2021/11/10 06:55:27;;;;;;;17.38;4.80;;;;;;;;;;5121132;27;20046;-67
2021/11/10 06:57:54;;;;;;;12.93;4.45;;;;;;;;;;5112967;28;20020;-67
2021/11/10 07:00:20;;;;;;;13.10;4.47;;;;;;;;;;5125964;27;20113;-74
2021/11/10 07:02:46;;;;;;;19.45;4.13;;;;;;;;;;5135981;27;20035;-73
2021/11/10 07:05:12;;;;;;;19.05;4.38;;;;;;;;;;5131713;27;20012;-67
2021/11/10 07:07:38;;;;;;;14.02;4.13;;;;;;;;;;5135455;27;20038;-65
2021/11/10 07:10:05;;;;;;;12.25;4.05;;;;;;;;;;5132566;27;20477;-72
2021/11/10 07:12:31;;;;;;;11.25;4.25;;;;;;;;;;5133315;27;20023;-71
2021/11/10 07:14:57;;;;;;;16.83;4.05;;;;;;;;;;5132696;27;20035;-68
2021/11/10 07:17:24;;;;;;;15.10;3.78;;;;;;;;;;5134112;27;20050;-64
2021/11/10 07:19:53;;;;;;;7.18;3.50;;;;;;;;;;5110988;28;20454;-67
2021/11/10 07:22:20;;;;;;;10.93;3.60;;;;;;;;;;5112864;28;20027;-67
2021/11/10 07:24:46;;;;;;;14.93;3.83;;;;;;;;;;5094045;28;20036;-64
2021/11/10 07:27:13;;;;;;;13.57;4.38;;;;;;;;;;5112887;28;20046;-68
2021/11/10 07:29:39;;;;;;;10.10;4.05;;;;;;;;;;5112705;28;20031;-65
2021/11/10 07:32:05;;;;;;;11.85;3.50;;;;;;;;;;5112796;28;20023;-71
2021/11/10 07:34:31;;;;;;;12.15;3.92;;;;;;;;;;5112976;28;20020;-66
2021/11/10 07:36:57;;;;;;;16.02;3.90;;;;;;;;;;5112794;28;20039;-68
2021/11/10 07:39:25;;;;;;;13.90;4.43;;;;;;;;;;5116335;28;20038;-67
2021/11/10 07:41:52;;;;;;;10.75;3.30;;;;;;;;;;5135325;27;20077;-66
2021/11/10 07:44:22;;;;;;;11.70;3.72;;;;;;;;;;5129713;27;20446;-70
2021/11/10 07:46:52;;;;;;;8.85;3.47;;;;;;;;;;5135535;27;20039;-67
2021/11/10 07:49:19;;;;;;;9.48;3.53;;;;;;;;;;5130033;28;20052;-67
2021/11/10 07:51:46;;;;;;;8.88;3.55;;;;;;;;;;5112513;28;20466;-72
2021/11/10 07:54:12;;;;;;;11.27;3.35;;;;;;;;;;5117332;28;20019;-73
2021/11/10 07:56:38;;;;;;;9.38;3.92;;;;;;;;;;5133007;28;20039;-71
2021/11/10 07:59:04;;;;;;;10.25;3.80;;;;;;;;;;5116163;28;20023;-67
2021/11/10 08:01:32;;;;;;;8.60;3.38;;;;;;;;;;5149341;27;20739;-67
2021/11/10 08:04:02;;;;;;;17.23;3.88;;;;;;;;;;5145550;27;20011;-70
2021/11/10 08:06:28;;;;;;;10.25;3.72;;;;;;;;;;5133360;28;20026;-70
2021/11/10 08:08:54;;;;;;;21.33;4.30;;;;;;;;;;5133299;27;20028;-70
2021/11/10 08:11:20;;;;;;;11.27;3.78;;;;;;;;;;5118356;27;20027;-65
2021/11/10 08:13:46;;;;;;;11.23;3.92;;;;;;;;;;5139191;27;20031;-69
2021/11/10 08:16:12;;;;;;;10.57;3.47;;;;;;;;;;5136598;27;20143;-68
2021/11/10 08:18:38;;;;;;;13.57;4.10;;;;;;;;;;5136580;27;20107;-68
2021/11/10 08:21:04;;;;;;;12.82;4.00;;;;;;;;;;5129405;27;20038;-67
2021/11/10 08:23:30;;;;;;;15.57;4.40;;;;;;;;;;5118283;27;20024;-68
2021/11/10 08:25:57;;;;;;;14.93;4.13;;;;;;;;;;5115871;28;20020;-67
2021/11/10 08:28:23;;;;;;;17.02;3.75;;;;;;;;;;5125381;27;20478;-67
2021/11/10 08:30:49;;;;;;;11.98;4.00;;;;;;;;;;5118036;27;20034;-67
2021/11/10 08:33:16;;;;;;;10.23;3.42;;;;;;;;;;5136909;27;20023;-67
2021/11/10 08:35:42;;;;;;;9.98;4.13;;;;;;;;;;5136447;27;20055;-66
2021/11/10 08:38:08;;;;;;;12.15;3.80;;;;;;;;;;5148844;27;20031;-67
2021/11/10 08:40:35;;;;;;;16.80;4.15;;;;;;;;;;5136422;27;20035;-67
2021/11/10 08:43:01;;;;;;;9.48;3.65;;;;;;;;;;5136093;27;20047;-67
2021/11/10 08:45:32;;;;;;;8.43;3.83;;;;;;;;;;5138086;27;20023;-68
2021/11/10 08:47:58;;;;;;;12.30;4.55;;;;;;;;;;5146952;27;20031;-67
2021/11/10 08:50:29;;;;;;;10.30;3.97;;;;;;;;;;5137316;27;20107;-68
2021/11/10 08:52:55;;;;;;;12.10;4.03;;;;;;;;;;5143120;27;20038;-67
2021/11/10 08:55:21;;;;;;;8.40;3.92;;;;;;;;;;5136962;27;20427;-67
2021/11/10 08:57:49;;;;;;;9.95;4.03;;;;;;;;;;5136464;27;20102;-67
2021/11/10 09:00:18;;;;;;;17.35;5.28;;;;;;;;;;5137913;27;20027;-67
2021/11/10 09:02:44;;;;;;;9.88;4.35;;;;;;;;;;5135891;27;20155;-67
2021/11/10 09:05:11;;;;;;;11.40;4.40;;;;;;;;;;5135426;27;20051;-67
2021/11/10 09:07:37;;;;;;;9.95;4.55;;;;;;;;;;5135787;27;20127;-67
2021/11/10 09:10:04;;;;;;;14.40;4.47;;;;;;;;;;5135670;27;20484;-67
2021/11/10 09:12:30;;;;;;;12.95;4.88;;;;;;;;;;5135566;27;20370;-67
2021/11/10 09:14:56;;;;;;;17.98;5.03;;;;;;;;;;5135061;27;20023;-67
2021/11/10 09:17:22;;;;;;;13.52;5.00;;;;;;;;;;5135622;27;20034;-67
2021/11/10 09:19:48;;;;;;;15.05;4.43;;;;;;;;;;5135095;27;20390;-67
2021/11/10 09:22:14;;;;;;;12.48;4.90;;;;;;;;;;5135282;27;20031;-67
2021/11/10 09:24:41;;;;;;;11.02;4.88;;;;;;;;;;5135290;27;20106;-66
2021/11/10 09:27:07;;;;;;;17.67;5.10;;;;;;;;;;5135523;27;20076;-66
2021/11/10 09:29:33;;;;;;;16.13;4.88;;;;;;;;;;5135126;27;20028;-68
2021/11/10 09:31:59;;;;;;;11.93;4.65;;;;;;;;;;5116879;27;20408;-66
2021/11/10 09:34:26;;;;;;;14.00;4.80;;;;;;;;;;5135073;27;20076;-66
2021/11/10 09:36:52;;;;;;;17.70;5.38;;;;;;;;;;5135236;27;20438;-66
2021/11/10 09:39:19;;;;;;;13.60;5.15;;;;;;;;;;5135073;27;20029;-66
2021/11/10 09:41:47;;;;;;;10.68;4.93;;;;;;;;;;5116561;27;20023;-66
2021/11/10 09:44:13;;;;;;;17.40;5.07;;;;;;;;;;5135063;27;20025;-67
2021/11/10 09:46:40;;;;;;;10.18;5.10;;;;;;;;;;5135127;27;20027;-68
2021/11/10 09:49:06;;;;;;;11.73;4.78;;;;;;;;;;5135034;27;20046;-67
2021/11/10 09:51:33;;;;;;;9.93;4.75;;;;;;;;;;5134947;27;20023;-67
2021/11/10 09:54:00;;;;;;;9.95;4.60;;;;;;;;;;5116493;27;20034;-67
2021/11/10 09:56:26;;;;;;;14.52;4.82;;;;;;;;;;5134787;27;20031;-67
2021/11/10 09:58:52;;;;;;;11.45;4.60;;;;;;;;;;5134517;27;20022;-67
2021/11/10 10:01:19;;;;;;;13.40;5.32;;;;;;;;;;5130697;27;20015;-66
2021/11/10 10:03:46;;;;;;;15.63;5.13;;;;;;;;;;5155410;27;20422;-66
2021/11/10 10:06:16;;;;;;;11.75;4.80;;;;;;;;;;5155387;27;20386;-68
2021/11/10 10:08:46;;;;;;;13.20;4.63;;;;;;;;;;5155080;27;20022;-67
2021/11/10 10:11:12;;;;;;;12.63;4.60;;;;;;;;;;5155772;27;20062;-67
2021/11/10 10:13:38;;;;;;;16.00;5.35;;;;;;;;;;5136759;27;20030;-67
2021/11/10 10:16:05;;;;;;;13.45;5.68;;;;;;;;;;5141686;27;20042;-67
2021/11/10 10:18:31;;;;;;;12.75;5.43;;;;;;;;;;5134361;27;20020;-66
2021/11/10 10:20:59;;;;;;;8.25;4.65;;;;;;;;;;5134188;27;20127;-66
2021/11/10 10:23:27;;;;;;;11.48;4.88;;;;;;;;;;5134454;27;20085;-67
2021/11/10 10:25:58;;;;;;;13.93;4.47;;;;;;;;;;5134350;27;20051;-68
2021/11/10 10:28:25;;;;;;;11.13;4.63;;;;;;;;;;5134442;27;20059;-68
2021/11/10 10:30:53;;;;;;;10.80;4.60;;;;;;;;;;5115954;27;20081;-66
2021/11/10 10:33:23;;;;;;;13.00;5.20;;;;;;;;;;5133356;27;20019;-67
2021/11/10 10:35:57;;;;;;;13.50;4.32;;;;;;;;;;5133902;27;20084;-67
2021/11/10 10:38:25;;;;;;;10.07;4.30;;;;;;;;;;5134028;27;20027;-67
2021/11/10 10:40:52;;;;;;;11.10;4.47;;;;;;;;;;5133948;27;20465;-66
2021/11/10 10:43:19;;;;;;;9.95;4.80;;;;;;;;;;5134170;27;20027;-66
2021/11/10 10:45:49;;;;;;;12.18;4.35;;;;;;;;;;5133873;27;20075;-66
2021/11/10 10:48:19;;;;;;;9.52;4.20;;;;;;;;;;5115518;27;20023;-67
2021/11/10 10:50:48;;;;;;;8.82;4.40;;;;;;;;;;5133723;27;20537;-67
2021/11/10 10:53:18;;;;;;;8.60;4.40;;;;;;;;;;5133803;27;20470;-67
2021/11/10 10:55:51;;;;;;;9.48;4.45;;;;;;;;;;5133685;27;20019;-66
2021/11/10 10:58:31;;;;;;;16.02;5.45;;;;;;;;;;5115456;27;20038;-66
2021/11/10 11:00:58;;;;;;;9.23;4.18;;;;;;;;;;5145054;27;20422;-66
2021/11/10 11:03:25;;;;;;;10.23;4.45;;;;;;;;;;5154752;27;20033;-66
2021/11/10 11:05:51;;;;;;;9.35;4.47;;;;;;;;;;5154632;27;20023;-66
2021/11/10 11:08:33;;;;;;;9.00;4.78;;;;;;;;;;5154458;27;20026;-67
2021/11/10 11:11:01;;;;;;;11.45;4.47;;;;;;;;;;5154346;27;20027;-67
2021/11/10 11:13:45;;;;;;;12.77;4.80;;;;;;;;;;5154301;27;20033;-67
2021/11/10 11:16:12;;;;;;;8.00;4.38;;;;;;;;;;5121280;27;20035;-68
2021/11/10 11:18:38;;;;;;;10.27;5.05;;;;;;;;;;5133253;27;20022;-68
2021/11/10 11:21:20;;;;;;;12.13;5.18;;;;;;;;;;5132128;27;20047;-67
2021/11/10 11:23:46;;;;;;;9.77;4.53;;;;;;;;;;5133611;27;20027;-67
2021/11/10 11:26:31;;;;;;;13.52;5.38;;;;;;;;;;5115001;27;20041;-68
2021/11/10 11:28:59;;;;;;;11.93;4.63;;;;;;;;;;5133344;27;20020;-67
2021/11/10 11:31:33;;;;;;;7.93;3.80;;;;;;;;;;5133361;27;20023;-67
2021/11/10 11:34:00;;;;;;;11.02;4.38;;;;;;;;;;5115352;28;20019;-67
2021/11/10 11:36:45;;;;;;;10.52;4.30;;;;;;;;;;5133289;28;20046;-67
2021/11/10 11:39:11;;;;;;;12.65;4.70;;;;;;;;;;5133272;28;20030;-67
2021/11/10 11:41:39;;;;;;;12.05;4.45;;;;;;;;;;5133409;28;20036;-67
2021/11/10 11:44:05;;;;;;;11.20;4.32;;;;;;;;;;5116747;27;20382;-67
2021/11/10 11:46:32;;;;;;;8.35;3.88;;;;;;;;;;5119053;27;20031;-68
2021/11/10 11:48:57;;;;;;;8.75;4.22;;;;;;;;;;5137293;27;20019;-67
2021/11/10 11:51:24;;;;;;;9.00;4.25;;;;;;;;;;5137062;27;20038;-66
2021/11/10 11:53:51;;;;;;;9.10;4.10;;;;;;;;;;5137368;27;20024;-66
2021/11/10 11:56:18;;;;;;;9.70;4.20;;;;;;;;;;5137339;27;20083;-66
2021/11/10 11:58:48;;;;;;;6.68;4.03;;;;;;;;;;5137334;27;20016;-66
2021/11/10 12:01:15;;;;;;;9.25;4.03;;;;;;;;;;5137276;27;20027;-65
2021/11/10 12:03:42;;;;;;;9.07;3.92;;;;;;;;;;5137236;27;20024;-66
2021/11/10 12:06:08;;;;;;;7.32;3.60;;;;;;;;;;5137167;27;20214;-66
2021/11/10 12:08:41;;;;;;;8.68;4.10;;;;;;;;;;5118815;27;20026;-65
2021/11/10 12:11:16;;;;;;;10.25;3.72;;;;;;;;;;5137204;27;20027;-66
2021/11/10 12:14:06;;;;;;;7.30;3.63;;;;;;;;;;5137222;27;20095;-66
2021/11/10 12:16:44;;;;;;;11.55;3.95;;;;;;;;;;5098595;27;20074;-67
2021/11/10 12:19:10;;;;;;;11.18;4.25;;;;;;;;;;5114096;28;20104;-66
2021/11/10 12:21:48;;;;;;;8.60;3.65;;;;;;;;;;5116395;27;20035;-68
2021/11/10 12:24:19;;;;;;;7.55;3.92;;;;;;;;;;5136791;27;20023;-66
2021/11/10 12:27:03;;;;;;;8.57;4.13;;;;;;;;;;5120214;27;20490;-66
2021/11/10 12:29:49;;;;;;;9.77;3.72;;;;;;;;;;5116480;28;20028;-67
2021/11/10 12:32:15;;;;;;;9.00;4.18;;;;;;;;;;5116114;28;20100;-67
2021/11/10 12:34:41;;;;;;;7.25;3.72;;;;;;;;;;5116009;28;20035;-67
2021/11/10 12:37:09;;;;;;;7.68;3.40;;;;;;;;;;5117115;27;20043;-68
2021/11/10 12:39:43;;;;;;;7.72;3.75;;;;;;;;;;5136601;27;20116;-66
2021/11/10 12:42:11;;;;;;;7.07;3.55;;;;;;;;;;5136634;27;20027;-66
2021/11/10 12:44:46;;;;;;;7.50;3.70;;;;;;;;;;5136513;27;20019;-67
2021/11/10 12:47:13;;;;;;;6.82;3.45;;;;;;;;;;5136350;27;20099;-66
2021/11/10 12:49:39;;;;;;;7.40;3.88;;;;;;;;;;5117977;27;20043;-68
2021/11/10 12:52:11;;;;;;;6.43;3.63;;;;;;;;;;5136470;27;20467;-67
2021/11/10 12:54:41;;;;;;;7.00;3.75;;;;;;;;;;5135938;27;20076;-68
2021/11/10 12:57:07;;;;;;;6.60;3.47;;;;;;;;;;5116943;27;20512;-68
2021/11/10 12:59:36;;;;;;;5.53;3.15;;;;;;;;;;5136184;27;20509;-68
2021/11/10 13:02:10;;;;;;;7.18;3.13;;;;;;;;;;5136282;27;20079;-67
2021/11/10 13:04:36;;;;;;;8.35;3.80;;;;;;;;;;5117734;27;20019;-68
2021/11/10 13:07:08;;;;;;;6.38;3.25;;;;;;;;;;5135776;27;20432;-68
2021/11/10 13:09:35;;;;;;;8.68;4.05;;;;;;;;;;5136119;27;20087;-67
2021/11/10 13:12:03;;;;;;;7.07;3.90;;;;;;;;;;5136153;27;20019;-68
2021/11/10 13:14:29;;;;;;;8.00;3.45;;;;;;;;;;5127783;27;20107;-67
2021/11/10 13:17:01;;;;;;;7.05;3.67;;;;;;;;;;5135411;27;20389;-67
2021/11/10 13:19:46;;;;;;;10.40;4.20;;;;;;;;;;5135814;27;20147;-67
2021/11/10 13:22:14;;;;;;;7.78;3.63;;;;;;;;;;5135896;27;20023;-67
2021/11/10 13:24:41;;;;;;;8.02;3.20;;;;;;;;;;5135624;27;20042;-67
2021/11/10 13:27:07;;;;;;;8.85;3.80;;;;;;;;;;5135539;27;20076;-68
2021/11/10 13:29:41;;;;;;;9.07;3.47;;;;;;;;;;5135844;27;20023;-67
2021/11/10 13:32:11;;;;;;;7.78;3.53;;;;;;;;;;5135405;27;20029;-67
2021/11/10 13:34:38;;;;;;;5.07;2.83;;;;;;;;;;5134775;27;20022;-67
2021/11/10 13:37:05;;;;;;;9.15;3.38;;;;;;;;;;5131888;27;20035;-68
2021/11/10 13:39:31;;;;;;;8.32;3.65;;;;;;;;;;5116145;27;20024;-67
2021/11/10 13:41:57;;;;;;;9.82;3.50;;;;;;;;;;5134699;27;20076;-67
2021/11/10 13:44:27;;;;;;;6.32;3.58;;;;;;;;;;5136357;27;20030;-68
2021/11/10 13:46:53;;;;;;;5.43;3.05;;;;;;;;;;5134028;27;20026;-67
2021/11/10 13:49:22;;;;;;;7.93;3.38;;;;;;;;;;5134684;27;20020;-67
2021/11/10 13:51:54;;;;;;;6.25;3.35;;;;;;;;;;5108068;27;20027;-67
2021/11/10 13:54:21;;;;;;;6.85;3.00;;;;;;;;;;5134482;27;20020;-67
2021/11/10 13:56:52;;;;;;;8.00;3.33;;;;;;;;;;5131354;27;20063;-68
2021/11/10 13:59:23;;;;;;;4.90;2.97;;;;;;;;;;5134308;27;20029;-68
2021/11/10 14:01:49;;;;;;;5.53;3.25;;;;;;;;;;5132059;27;20106;-67
2021/11/10 14:04:22;;;;;;;7.45;3.28;;;;;;;;;;5115926;27;20106;-67
2021/11/10 14:07:06;;;;;;;6.82;2.97;;;;;;;;;;5131168;27;20040;-67
2021/11/10 14:09:34;;;;;;;5.63;2.78;;;;;;;;;;5132149;27;20023;-68
2021/11/10 14:12:18;;;;;;;7.20;2.90;;;;;;;;;;5133678;27;20015;-67
2021/11/10 14:14:44;;;;;;;5.93;3.30;;;;;;;;;;5133343;27;20534;-66
2021/11/10 14:17:10;;;;;;;5.05;2.92;;;;;;;;;;5115324;27;20035;-67
2021/11/10 14:19:36;;;;;;;6.18;3.05;;;;;;;;;;5132530;27;20082;-67
2021/11/10 14:22:03;;;;;;;5.55;3.00;;;;;;;;;;5127776;27;20114;-67
2021/11/10 14:24:31;;;;;;;4.97;2.60;;;;;;;;;;5115023;27;20464;-67
2021/11/10 14:27:03;;;;;;;5.80;2.63;;;;;;;;;;5133461;27;20015;-67
2021/11/10 14:29:31;;;;;;;6.07;3.28;;;;;;;;;;5134324;27;20362;-68
2021/11/10 14:31:57;;;;;;;5.65;2.80;;;;;;;;;;5115798;27;20054;-68
2021/11/10 14:34:30;;;;;;;5.72;2.70;;;;;;;;;;5133996;27;20023;-68
2021/11/10 14:36:59;;;;;;;7.07;2.80;;;;;;;;;;5131594;27;20124;-67
2021/11/10 14:39:25;;;;;;;6.40;2.67;;;;;;;;;;5133643;27;20019;-68